Stations météo

réclame
Mon MeteoGroup
Melle, Belgique (6434): Température de l'air & dewpoint: 19.02.2018 02:00:00 - 25.02.2018 02:00:00 (CET)Melle, Belgique (6434): Vitesse du vent & gusts: 19.02.2018 02:00:00 - 25.02.2018 02:00:00 (CET)Melle, Belgique (6434): Direction du vent: 19.02.2018 02:00:00 - 25.02.2018 02:00:00 (CET)Melle, Belgique (6434): reduced air pressure: 19.02.2018 02:00:00 - 25.02.2018 02:00:00 (CET)Melle, Belgique (6434): Ensoleillement: 19.02.2018 02:00:00 - 25.02.2018 02:00:00 (CET)Melle, Belgique (6434): Quantités de précipitations: 19.02.2018 02:00:00 - 25.02.2018 02:00:00 (CET)
Date & Time tt [°C] td [°C] ff [km/h] ff [knt] fx [km/h] fx [knt] dd ppp [hPa] sd [min] rr [mm]
25.02.2018 02:00:00 -1,6 -7,7 19 11 32 18 ENE 1026,1 0 0,0
25.02.2018 01:00:00 -1,3 -7,5 22 12 35 19 ENE 1026,2 0 0,0
25.02.2018 00:00:00 -0,7 -7,2 23 12 36 19 ENE 1025,9 0 0,0
24.02.2018 23:00:00 -0,3 -6,9 22 12 39 21 ENE 1025,4 0 0,0
24.02.2018 22:00:00 0,0 -6,2 24 13 43 23 E 1025,0 0 0,0
24.02.2018 21:00:00 0,4 -5,2 24 13 42 23 ENE 1024,7 0 0,0
24.02.2018 20:00:00 1,2 -5,3 26 14 42 23 ENE 1024,2 0 0,0
24.02.2018 19:00:00 1,6 -5,2 25 14 50 27 E 1023,7 0 0,0
24.02.2018 18:00:00 3,5 -5,8 24 13 46 25 ENE 1022,8 59 0,0
24.02.2018 17:00:00 4,5 -7,1 30 16 49 27 ENE 1022,6 60 0,0
24.02.2018 16:00:00 5,1 -7,4 31 17 49 26 E 1022,2 60 0,0
24.02.2018 15:00:00 5,0 -7,7 31 17 48 26 ENE 1022,0 60 0,0
24.02.2018 14:00:00 4,2 -9,1 31 17 50 27 E 1022,1 60 0,0
24.02.2018 13:00:00 3,3 -9,9 29 16 42 23 E 1022,4 60 0,0
24.02.2018 12:00:00 1,8 -10,1 27 15 43 23 E 1022,9 60 0,0
24.02.2018 11:00:00 0,1 -9,7 25 13 38 20 ENE 1023,1 60 0,0
24.02.2018 10:00:00 -1,4 -10,1 28 15 41 22 E 1022,7 60 0,0
24.02.2018 09:00:00 -2,6 -9,6 22 12 37 20 E 1022,6 53 0,0
24.02.2018 08:00:00 -3,4 -9,5 19 11 31 17 E 1022,1 0 0,0
24.02.2018 07:00:00 -3,2 -9,4 18 10 34 19 E 1021,8 0 0,0
24.02.2018 06:00:00 -2,9 -8,9 19 10 30 16 E 1021,5 0 0,0
24.02.2018 05:00:00 -2,8 -8,2 19 10 29 16 ENE 1021,3 0 0,0
24.02.2018 04:00:00 -2,6 -7,5 18 10 26 14 E 1021,2 0 0,0
24.02.2018 03:00:00 -2,4 -6,8 18 10 27 15 ENE 1021,1 0 0,0
24.02.2018 02:00:00 -2,1 -6,1 17 9 30 16 ENE 1021,0 0 0,0
24.02.2018 01:00:00 -1,5 -5,9 22 12 29 16 ENE 1021,0 0 0,0
24.02.2018 00:00:00 -1,2 -6,1 19 10 31 17 ENE 1020,5 0 0,0
23.02.2018 23:00:00 -0,8 -6,1 18 10 28 15 ENE 1020,5 0 0,0
23.02.2018 22:00:00 -0,3 -5,9 19 11 28 15 ENE 1020,5 0 0,0
23.02.2018 21:00:00 0,2 -5,9 19 10 29 16 ENE 1020,4 0 0,0
23.02.2018 20:00:00 0,9 -6,1 18 10 26 14 ENE 1020,2 0 0,0
23.02.2018 19:00:00 1,4 -6,7 18 10 35 19 E 1020,2 11 0,0
23.02.2018 18:00:00 2,2 -6,9 19 10 37 20 E 1020,0 60 0,0
23.02.2018 17:00:00 3,0 -6,9 19 11 37 20 E 1019,8 60 0,0
23.02.2018 16:00:00 3,2 -7,0 24 13 38 21 ENE 1020,0 60 0,0
23.02.2018 15:00:00 2,9 -6,3 25 13 39 21 E 1020,4 60 0,0
23.02.2018 14:00:00 2,5 -5,6 24 13 39 21 ENE 1020,7 60 0,0
23.02.2018 13:00:00 2,2 -4,7 22 12 41 22 ENE 1021,4 60 0,0
23.02.2018 12:00:00 1,0 -4,4 25 14 47 25 ENE 1021,9 60 0,0
23.02.2018 11:00:00 0,6 -4,5 27 14 43 23 ENE 1022,2 60 0,0
23.02.2018 10:00:00 -0,1 -4,6 24 13 35 19 ENE 1022,5 60 0,0
23.02.2018 09:00:00 -1,5 -4,0 14 8 24 13 ENE 1022,6 42 0,0
23.02.2018 08:00:00 -2,2 -4,1 14 8 21 11 ENE 1022,6 0 0,0
23.02.2018 07:00:00 -2,0 -4,1 14 8 20 11 ENE 1022,5 0 0,0
23.02.2018 06:00:00 -1,7 -4,4 14 8 22 12 ENE 1022,3 0 0,0
23.02.2018 05:00:00 -1,5 -4,6 14 8 21 12 ENE 1022,3 0 0,0
23.02.2018 04:00:00 -1,4 -4,6 16 9 24 13 ENE 1022,3 0 0,0
23.02.2018 03:00:00 -1,2 -4,9 15 8 22 12 ENE 1022,6 0 0,0
23.02.2018 02:00:00 -0,8 -5,0 16 9 27 15 ENE 1022,8 0 0,0
23.02.2018 01:00:00 -0,4 -4,8 18 10 26 14 ENE 1022,9 0 0,0
23.02.2018 00:00:00 0,0 -4,4 18 10 31 17 ENE 1022,9 0 0,0
22.02.2018 23:00:00 0,6 -4,4 18 10 35 19 ENE 1022,8 0 0,0
22.02.2018 22:00:00 1,1 -4,2 21 12 41 22 ENE 1022,5 0 0,0
22.02.2018 21:00:00 1,5 -4,1 17 9 31 17 ENE 1022,5 0 0,0
22.02.2018 20:00:00 2,2 -4,0 20 11 33 18 NE 1022,4 0 0,0
22.02.2018 19:00:00 2,6 -3,5 18 10 33 18 NE 1022,1 8 0,0
22.02.2018 18:00:00 3,9 -4,5 19 11 37 20 NE 1021,9 60 0,0
22.02.2018 17:00:00 4,6 -4,3 23 13 38 21 NE 1021,8 60 0,0
22.02.2018 16:00:00 4,9 -4,5 22 12 40 21 NE 1022,0 60 0,0
22.02.2018 15:00:00 4,9 -5,2 23 12 40 21 NE 1022,4 60 0,0
22.02.2018 14:00:00 4,4 -4,7 23 13 37 20 ENE 1023,3 60 0,0
22.02.2018 13:00:00 3,7 -4,1 22 12 34 18 E 1023,9 60 0,0
22.02.2018 12:00:00 2,7 -3,6 20 11 32 17 ENE 1024,2 60 0,0
22.02.2018 11:00:00 1,4 -3,5 21 11 34 18 E 1024,3 60 0,0
22.02.2018 10:00:00 -0,1 -3,7 19 11 29 16 ENE 1024,4 60 0,0
22.02.2018 09:00:00 -1,3 -4,1 14 7 21 11 ENE 1024,3 42 0,0
22.02.2018 08:00:00 -2,2 -4,3 13 7 19 11 ENE 1024,1 0 0,0
22.02.2018 07:00:00 -2,1 -4,2 14 8 19 10 ENE 1023,9 0 0,0
22.02.2018 06:00:00 -1,9 -4,0 13 7 18 10 NE 1023,7 0 0,0
22.02.2018 05:00:00 -1,7 -3,9 13 7 19 10 NE 1023,5 0 0,0
22.02.2018 04:00:00 -1,5 -3,8 13 7 18 10 NE 1023,6 0 0,0
22.02.2018 03:00:00 -1,3 -3,5 13 7 17 9 NE 1024,1 0 0,0
22.02.2018 02:00:00 -1,1 -3,2 13 7 18 10 NE 1024,3 0 0,0
22.02.2018 01:00:00 -0,7 -2,8 14 8 20 11 NE 1024,6 0 0,0
22.02.2018 00:00:00 -0,3 -2,3 14 7 18 10 NE 1024,9 0 0,0
21.02.2018 23:00:00 0,2 -2,0 13 7 23 12 NNE 1025,1 0 0,0
21.02.2018 22:00:00 0,9 -2,0 15 8 21 12 NNE 1025,1 0 0,0
21.02.2018 21:00:00 1,5 -2,1 14 7 21 11 NNE 1024,8 0 0,0
21.02.2018 20:00:00 1,8 -1,8 13 7 19 11 NNE 1024,8 0 0,0
21.02.2018 19:00:00 2,2 -1,5 14 8 25 13 NNE 1024,7 0 0,0
21.02.2018 18:00:00 3,5 -1,7 13 7 27 15 NNE 1024,7 52 0,0
21.02.2018 17:00:00 4,5 -1,8 18 10 27 14 NNE 1024,4 60 0,0
21.02.2018 16:00:00 4,8 -1,8 16 9 32 18 NNE 1024,7 60 0,0
21.02.2018 15:00:00 4,5 -2,3 19 10 26 14 NNE 1025,3 60 0,0
21.02.2018 14:00:00 - - - - - - - - - -
21.02.2018 13:00:00 3,4 -2,4 14 8 - - NE 1026,4 - -
21.02.2018 12:00:00 2,5 -1,7 14 8 22 12 NNE 1026,8 - -
21.02.2018 11:00:00 1,3 -1,8 11 6 18 10 ENE 1026,5 - -
21.02.2018 10:00:00 0,0 -1,8 11 6 18 10 NE 1026,7 60 0,0
21.02.2018 09:00:00 -0,9 -2,3 11 6 17 9 NE 1026,1 21 0,0
21.02.2018 08:00:00 -1,3 -2,4 13 7 19 10 NNE 1025,9 0 0,0
21.02.2018 07:00:00 -1,4 -2,4 11 6 16 9 NNE 1025,8 0 0,0
21.02.2018 06:00:00 -1,4 -2,4 11 6 14 8 N 1025,6 0 0,0
21.02.2018 05:00:00 -1,0 -2,1 10 5 15 8 NNE 1025,1 0 0,0
21.02.2018 04:00:00 -1,0 -2,1 10 5 14 7 NNE 1024,9 0 0,0
21.02.2018 03:00:00 -0,9 -2,0 9 5 14 8 N 1024,6 0 0,0
21.02.2018 02:00:00 0,2 -1,3 9 5 18 10 NE 1024,2 0 0,0
21.02.2018 01:00:00 0,5 -1,0 11 6 21 12 ENE 1023,9 0 0,0
21.02.2018 00:00:00 1,5 -0,4 14 8 18 10 NNE 1023,5 0 0,0
20.02.2018 23:00:00 2,2 -0,2 13 7 19 10 NNE 1022,9 0 0,0
20.02.2018 22:00:00 2,6 -0,3 12 7 18 10 NNE 1022,3 0 0,0
20.02.2018 21:00:00 3,2 0,4 11 6 18 10 NNE 1021,8 0 0,0
20.02.2018 20:00:00 3,5 0,5 13 7 18 10 NE 1020,9 0 0,0
20.02.2018 19:00:00 4,0 0,3 11 6 16 9 NNE 1020,2 0 0,0
20.02.2018 18:00:00 4,9 0,6 13 7 18 10 NNE 1019,6 0 0,0
20.02.2018 17:00:00 5,4 0,0 10 6 16 8 NNE 1019,1 0 0,0
20.02.2018 16:00:00 5,4 -0,5 10 5 13 7 NNE 1018,9 0 0,0
20.02.2018 15:00:00 5,6 -0,5 5 3 9 5 NNE 1018,8 0 0,0
20.02.2018 14:00:00 5,5 -0,1 5 3 9 5 NE 1019,2 21 0,0
20.02.2018 13:00:00 4,8 0,6 7 4 14 7 E 1019,3 12 0,0
20.02.2018 12:00:00 4,3 1,2 7 4 12 7 E 1019,3 54 0,0
20.02.2018 11:00:00 3,3 1,8 7 4 11 6 ENE 1019,2 0 0,0
20.02.2018 10:00:00 2,6 1,7 5 3 9 5 NE 1019,3 0 0,0
20.02.2018 09:00:00 2,2 1,9 4 2 6 3 ENE 1018,8 2 0,0
20.02.2018 08:00:00 1,9 1,8 5 3 8 4 NNE 1018,8 0 0,0
20.02.2018 07:00:00 2,2 2,0 7 4 9 5 E 1018,1 0 0,0
20.02.2018 06:00:00 2,3 2,2 6 4 9 5 E 1018,0 0 0,0
20.02.2018 05:00:00 2,2 2,0 6 3 9 5 E 1018,0 0 0,0
20.02.2018 04:00:00 2,2 2,0 5 3 8 4 E 1017,9 0 0,0
20.02.2018 03:00:00 2,1 1,9 7 4 9 5 ENE 1017,9 0 0,0
20.02.2018 02:00:00 2,6 2,1 5 3 9 5 ESE 1017,5 0 0,0
20.02.2018 01:00:00 2,7 2,2 4 2 7 4 ESE 1017,4 0 0,0
20.02.2018 00:00:00 2,8 2,4 7 4 11 6 SE 1017,6 0 0,0
19.02.2018 23:00:00 2,9 2,6 6 4 14 8 SE 1017,4 0 0,0
19.02.2018 22:00:00 3,0 2,7 6 3 16 9 SE 1017,5 0 0,0
19.02.2018 21:00:00 3,2 2,6 8 4 13 7 SE 1017,4 0 0,0
19.02.2018 20:00:00 3,4 2,3 7 4 14 7 SSE 1017,4 0 0,0
19.02.2018 19:00:00 3,4 2,4 7 4 17 9 SSE 1017,4 0 0,0
19.02.2018 18:00:00 3,4 2,3 8 5 17 9 SSE 1017,3 0 0,0
19.02.2018 17:00:00 3,5 2,7 10 5 18 10 SSE 1017,5 0 -
19.02.2018 16:00:00 - - - - - - - - - -
19.02.2018 15:00:00 - - - - - - - - 0 -
19.02.2018 14:00:00 2,9 1,9 12 6 18 10 S 1018,8 0 0,2
19.02.2018 13:00:00 2,5 1,5 11 6 19 10 SSW 1019,3 0 0,1
19.02.2018 12:00:00 1,5 0,2 14 8 24 13 SSW 1019,7 0 0,0
19.02.2018 11:00:00 0,8 -0,8 15 8 25 13 SSW 1019,8 0 0,0
19.02.2018 10:00:00 0,4 -1,3 14 8 24 13 SSW 1020,2 0 0,0
19.02.2018 09:00:00 0,1 -1,7 12 6 22 12 S 1020,3 0 0,0
19.02.2018 08:00:00 -0,1 -1,8 11 6 19 10 S 1020,6 0 0,0
19.02.2018 07:00:00 0,0 -1,8 14 8 19 10 SSW 1020,4 0 0,0
19.02.2018 06:00:00 0,2 -1,6 12 7 17 9 S 1020,7 0 0,0
19.02.2018 05:00:00 0,4 -1,3 9 5 19 11 S 1021,0 0 0,0
19.02.2018 04:00:00 0,7 -1,3 12 7 21 12 S 1021,5 0 0,0
19.02.2018 03:00:00 1,0 -1,2 12 7 18 10 S 1021,8 0 0,0
19.02.2018 02:00:00 1,4 -1,3 9 5 19 10 S 1022,4 0 0,0

tt = Température de l'air
td = dewpoint
ff = Vitesse du vent
fx = gusts
dd = Direction du vent
ppp = reduced air pressure
sd = Ensoleillement
rr = Quantités de précipitations

stations d'obs. à proximité